Heislerville, New Jersey
Current Conditions -  °F | °C
As of 5:54 AM on Friday 24 Oct 2014 (Local Time) from KMIV Reporting Station
Clear Clear  
Wind Chill: 41°   Ceiling: Unl
Heat Index: 45°   Visibility: 10mi
Dew Point: 43°   Wind: 7mph
Humidity: 93%   Direction: 280°W
Pressure: 29.84"   Gusts: NA
Location:  39.22°N, 74.99°W
Report Text: KMIV 240954Z AUTO 28006KT 10SM CLR 07/06 A2984 RMK AO2 SLP105 T00720061
Loading
Personal Weather Stations






























Interactive Weather Map
Tropical Storm Tracking
New forecast layout! Learn more

10-Day Weather Forecast

Advertisements
Track Severe Weather on mobile